sensor_id;sensor_type;location;lat;lon;timestamp;pressure;altitude;pressure_sealevel;temperature;humidity
14689;BME280;7432;48.728;9.154;2023-08-01T00:00:09;146103.94;;;17.61;94.94
14689;BME280;7432;48.728;9.154;2023-08-01T00:02:35;146090.56;;;17.55;95.49
14689;BME280;7432;48.728;9.154;2023-08-01T00:05:02;146085.72;;;17.53;95.13
14689;BME280;7432;48.728;9.154;2023-08-01T00:07:30;146086.94;;;17.54;95.68
14689;BME280;7432;48.728;9.154;2023-08-01T00:09:56;146091.78;;;17.56;95.62
14689;BME280;7432;48.728;9.154;2023-08-01T00:12:24;146083.22;;;17.52;95.63
14689;BME280;7432;48.728;9.154;2023-08-01T00:14:50;146077.13;;;17.50;96.83
14689;BME280;7432;48.728;9.154;2023-08-01T00:17:17;146054.03;;;17.40;96.06
14689;BME280;7432;48.728;9.154;2023-08-01T00:19:43;146064.97;;;17.45;96.68
14689;BME280;7432;48.728;9.154;2023-08-01T00:22:09;146060.13;;;17.43;97.86
14689;BME280;7432;48.728;9.154;2023-08-01T00:24:37;146067.44;;;17.46;97.54
14689;BME280;7432;48.728;9.154;2023-08-01T00:27:04;146067.44;;;17.46;96.58
14689;BME280;7432;48.728;9.154;2023-08-01T00:29:33;146051.59;;;17.39;97.62
14689;BME280;7432;48.728;9.154;2023-08-01T00:31:59;146064.97;;;17.45;96.56
14689;BME280;7432;48.728;9.154;2023-08-01T00:34:25;146061.31;;;17.43;96.77
14689;BME280;7432;48.728;9.154;2023-08-01T00:36:52;146085.72;;;17.53;96.67
14689;BME280;7432;48.728;9.154;2023-08-01T00:39:18;146095.44;;;17.57;96.71
14689;BME280;7432;48.728;9.154;2023-08-01T00:41:46;146085.72;;;17.53;96.00
14689;BME280;7432;48.728;9.154;2023-08-01T00:44:12;146082.00;;;17.52;95.90
14689;BME280;7432;48.728;9.154;2023-08-01T00:46:38;146078.38;;;17.50;95.34
14689;BME280;7432;48.728;9.154;2023-08-01T00:49:05;146091.78;;;17.56;94.23
14689;BME280;7432;48.728;9.154;2023-08-01T00:51:33;146095.44;;;17.57;94.83
14689;BME280;7432;48.728;9.154;2023-08-01T00:54:00;146100.31;;;17.59;93.84
14689;BME280;7432;48.728;9.154;2023-08-01T00:56:27;146101.50;;;17.60;93.81
14689;BME280;7432;48.728;9.154;2023-08-01T00:58:54;146116.13;;;17.66;93.87
14689;BME280;7432;48.728;9.154;2023-08-01T01:01:21;146118.56;;;17.67;93.40
14689;BME280;7432;48.728;9.154;2023-08-01T01:03:47;146133.19;;;17.73;93.25
14689;BME280;7432;48.728;9.154;2023-08-01T01:06:18;146123.41;;;17.69;94.21
14689;BME280;7432;48.728;9.154;2023-08-01T01:08:47;146134.34;;;17.73;92.28
14689;BME280;7432;48.728;9.154;2023-08-01T01:11:13;146142.88;;;17.77;92.21
14689;BME280;7432;48.728;9.154;2023-08-01T01:13:40;146131.94;;;17.72;91.20
14689;BME280;7432;48.728;9.154;2023-08-01T01:16:08;146145.34;;;17.78;91.59
14689;BME280;7432;48.728;9.154;2023-08-01T01:18:34;146129.50;;;17.71;91.62
14689;BME280;7432;48.728;9.154;2023-08-01T01:21:02;146133.19;;;17.73;91.98
14689;BME280;7432;48.728;9.154;2023-08-01T01:23:30;146113.72;;;17.65;92.90
14689;BME280;7432;48.728;9.154;2023-08-01T01:25:58;146117.34;;;17.66;92.89
14689;BME280;7432;48.728;9.154;2023-08-01T01:28:25;146100.31;;;17.59;92.40
14689;BME280;7432;48.728;9.154;2023-08-01T01:30:53;146090.56;;;17.55;94.81
14689;BME280;7432;48.728;9.154;2023-08-01T01:33:21;146068.59;;;17.46;96.02
14689;BME280;7432;48.728;9.154;2023-08-01T01:35:47;146026.06;;;17.29;97.37
14689;BME280;7432;48.728;9.154;2023-08-01T01:38:17;146013.91;;;17.24;98.16
14689;BME280;7432;48.728;9.154;2023-08-01T01:40:43;146016.31;;;17.25;97.37
14689;BME280;7432;48.728;9.154;2023-08-01T01:43:10;145995.63;;;17.16;98.05
14689;BME280;7432;48.728;9.154;2023-08-01T01:45:36;145983.47;;;17.11;99.53
14689;BME280;7432;48.728;9.154;2023-08-01T01:48:03;145973.75;;;17.07;99.44
14689;BME280;7432;48.728;9.154;2023-08-01T01:50:29;145967.69;;;17.04;99.52
14689;BME280;7432;48.728;9.154;2023-08-01T01:52:55;145957.94;;;17.00;100.00
14689;BME280;7432;48.728;9.154;2023-08-01T01:55:23;145957.94;;;17.00;100.00
14689;BME280;7432;48.728;9.154;2023-08-01T01:57:49;145947.00;;;16.96;100.00
14689;BME280;7432;48.728;9.154;2023-08-01T02:00:16;145943.31;;;16.94;100.00
14689;BME280;7432;48.728;9.154;2023-08-01T02:02:42;145940.91;;;16.93;100.00
14689;BME280;7432;48.728;9.154;2023-08-01T02:05:09;145929.94;;;16.89;100.00
14689;BME280;7432;48.728;9.154;2023-08-01T02:07:35;145939.69;;;16.93;100.00
14689;BME280;7432;48.728;9.154;2023-08-01T02:10:02;145932.41;;;16.90;100.00
14689;BME280;7432;48.728;9.154;2023-08-01T02:12:29;145920.25;;;16.85;100.00
14689;BME280;7432;48.728;9.154;2023-08-01T02:14:57;145923.88;;;16.86;100.00
14689;BME280;7432;48.728;9.154;2023-08-01T02:17:23;145933.63;;;16.90;100.00
14689;BME280;7432;48.728;9.154;2023-08-01T02:19:50;145928.78;;;16.88;100.00
14689;BME280;7432;48.728;9.154;2023-08-01T02:22:16;145916.56;;;16.83;100.00
14689;BME280;7432;48.728;9.154;2023-08-01T02:24:43;145928.78;;;16.88;100.00
14689;BME280;7432;48.728;9.154;2023-08-01T02:27:09;145932.41;;;16.90;100.00
14689;BME280;7432;48.728;9.154;2023-08-01T02:29:37;145940.91;;;16.93;100.00
14689;BME280;7432;48.728;9.154;2023-08-01T02:32:04;145942.16;;;16.94;100.00
14689;BME280;7432;48.728;9.154;2023-08-01T02:34:30;145948.22;;;16.96;100.00
14689;BME280;7432;48.728;9.154;2023-08-01T02:36:57;145951.84;;;16.98;100.00
14689;BME280;7432;48.728;9.154;2023-08-01T02:39:23;145954.31;;;16.99;100.00
14689;BME280;7432;48.728;9.154;2023-08-01T02:41:49;145943.31;;;16.94;100.00
14689;BME280;7432;48.728;9.154;2023-08-01T02:44:16;145965.22;;;17.03;100.00
14689;BME280;7432;48.728;9.154;2023-08-01T02:46:43;145971.31;;;17.06;99.96
14689;BME280;7432;48.728;9.154;2023-08-01T02:49:10;145979.84;;;17.09;98.84
14689;BME280;7432;48.728;9.154;2023-08-01T02:51:36;145983.47;;;17.11;100.00
14689;BME280;7432;48.728;9.154;2023-08-01T02:54:03;145988.38;;;17.13;99.63
14689;BME280;7432;48.728;9.154;2023-08-01T02:56:29;145973.75;;;17.07;100.00
14689;BME280;7432;48.728;9.154;2023-08-01T02:58:55;145998.06;;;17.17;99.50
14689;BME280;7432;48.728;9.154;2023-08-01T03:01:22;145995.63;;;17.16;99.45
14689;BME280;7432;48.728;9.154;2023-08-01T03:03:50;145987.13;;;17.12;100.00
14689;BME280;7432;48.728;9.154;2023-08-01T03:06:16;145982.25;;;17.10;99.48
14689;BME280;7432;48.728;9.154;2023-08-01T03:08:43;145995.63;;;17.16;98.72
14689;BME280;7432;48.728;9.154;2023-08-01T03:11:09;146009.00;;;17.22;98.04
14689;BME280;7432;48.728;9.154;2023-08-01T03:13:36;146012.69;;;17.23;98.35
14689;BME280;7432;48.728;9.154;2023-08-01T03:16:02;146017.53;;;17.25;98.32
14689;BME280;7432;48.728;9.154;2023-08-01T03:18:29;146017.53;;;17.25;98.58
14689;BME280;7432;48.728;9.154;2023-08-01T03:20:57;146013.91;;;17.24;98.43
14689;BME280;7432;48.728;9.154;2023-08-01T03:23:23;146035.75;;;17.33;98.08
14689;BME280;7432;48.728;9.154;2023-08-01T03:25:50;146018.75;;;17.26;98.18
14689;BME280;7432;48.728;9.154;2023-08-01T03:28:17;146043.06;;;17.36;97.65
14689;BME280;7432;48.728;9.154;2023-08-01T03:30:43;146038.22;;;17.34;97.37
14689;BME280;7432;48.728;9.154;2023-08-01T03:33:10;146034.59;;;17.32;97.18
14689;BME280;7432;48.728;9.154;2023-08-01T03:35:36;146034.59;;;17.32;97.17
14689;BME280;7432;48.728;9.154;2023-08-01T03:38:04;146039.44;;;17.34;96.54
14689;BME280;7432;48.728;9.154;2023-08-01T03:40:30;146046.75;;;17.37;96.07
14689;BME280;7432;48.728;9.154;2023-08-01T03:42:57;146066.22;;;17.45;94.20
14689;BME280;7432;48.728;9.154;2023-08-01T03:45:23;146077.13;;;17.50;93.02
14689;BME280;7432;48.728;9.154;2023-08-01T03:47:49;146073.50;;;17.48;93.79
14689;BME280;7432;48.728;9.154;2023-08-01T03:50:16;146072.28;;;17.48;94.80
14689;BME280;7432;48.728;9.154;2023-08-01T03:52:42;146086.94;;;17.54;93.33
14689;BME280;7432;48.728;9.154;2023-08-01T03:55:10;146093.03;;;17.56;92.74
14689;BME280;7432;48.728;9.154;2023-08-01T03:57:36;146114.88;;;17.65;92.32
14689;BME280;7432;48.728;9.154;2023-08-01T04:00:05;146113.72;;;17.65;91.98
14689;BME280;7432;48.728;9.154;2023-08-01T04:02:31;146123.41;;;17.69;91.32
14689;BME280;7432;48.728;9.154;2023-08-01T04:04:58;146112.47;;;17.64;92.13
14689;BME280;7432;48.728;9.154;2023-08-01T04:07:24;146102.72;;;17.60;92.44
14689;BME280;7432;48.728;9.154;2023-08-01T04:09:50;146118.56;;;17.67;92.17
14689;BME280;7432;48.728;9.154;2023-08-01T04:12:20;146125.88;;;17.70;91.62
14689;BME280;7432;48.728;9.154;2023-08-01T04:14:46;146116.13;;;17.66;91.55
14689;BME280;7432;48.728;9.154;2023-08-01T04:17:13;146123.41;;;17.69;91.94
14689;BME280;7432;48.728;9.154;2023-08-01T04:19:39;146119.78;;;17.67;92.46
14689;BME280;7432;48.728;9.154;2023-08-01T04:22:06;146114.88;;;17.65;91.48
14689;BME280;7432;48.728;9.154;2023-08-01T04:24:34;146108.81;;;17.63;92.79
14689;BME280;7432;48.728;9.154;2023-08-01T04:27:00;146111.25;;;17.64;92.16
14689;BME280;7432;48.728;9.154;2023-08-01T04:29:28;146114.88;;;17.65;92.46
14689;BME280;7432;48.728;9.154;2023-08-01T04:31:56;146119.78;;;17.67;92.24
14689;BME280;7432;48.728;9.154;2023-08-01T04:34:22;146113.72;;;17.65;92.07
14689;BME280;7432;48.728;9.154;2023-08-01T04:36:49;146102.72;;;17.60;92.21
14689;BME280;7432;48.728;9.154;2023-08-01T04:39:15;146108.81;;;17.63;91.12
14689;BME280;7432;48.728;9.154;2023-08-01T04:41:41;146096.66;;;17.58;91.77
14689;BME280;7432;48.728;9.154;2023-08-01T04:44:08;146096.66;;;17.58;91.13
14689;BME280;7432;48.728;9.154;2023-08-01T04:46:36;146107.59;;;17.62;90.60
14689;BME280;7432;48.728;9.154;2023-08-01T04:49:02;146100.31;;;17.59;91.33
14689;BME280;7432;48.728;9.154;2023-08-01T04:51:28;146113.72;;;17.65;89.68
14689;BME280;7432;48.728;9.154;2023-08-01T04:53:55;146125.88;;;17.70;89.41
14689;BME280;7432;48.728;9.154;2023-08-01T04:56:21;146131.94;;;17.72;89.46
14689;BME280;7432;48.728;9.154;2023-08-01T04:58:47;146118.56;;;17.67;89.53
14689;BME280;7432;48.728;9.154;2023-08-01T05:01:14;146138.03;;;17.75;88.85
14689;BME280;7432;48.728;9.154;2023-08-01T05:03:41;146125.88;;;17.70;90.08
14689;BME280;7432;48.728;9.154;2023-08-01T05:06:08;146142.88;;;17.77;88.90
14689;BME280;7432;48.728;9.154;2023-08-01T05:08:34;146138.03;;;17.75;89.25
14689;BME280;7432;48.728;9.154;2023-08-01T05:11:00;146146.56;;;17.79;88.33
14689;BME280;7432;48.728;9.154;2023-08-01T05:13:27;146139.25;;;17.75;88.85
14689;BME280;7432;48.728;9.154;2023-08-01T05:15:53;146144.13;;;17.77;87.91
14689;BME280;7432;48.728;9.154;2023-08-01T05:18:20;146151.41;;;17.81;88.11
14689;BME280;7432;48.728;9.154;2023-08-01T05:20:47;146164.81;;;17.86;86.20
14689;BME280;7432;48.728;9.154;2023-08-01T05:23:14;146173.28;;;17.90;85.94
14689;BME280;7432;48.728;9.154;2023-08-01T05:25:40;146180.59;;;17.93;86.06
14689;BME280;7432;48.728;9.154;2023-08-01T05:28:07;146175.75;;;17.91;85.17
14689;BME280;7432;48.728;9.154;2023-08-01T05:30:33;146192.81;;;17.98;84.77
14689;BME280;7432;48.728;9.154;2023-08-01T05:33:00;146190.34;;;17.97;83.94
14689;BME280;7432;48.728;9.154;2023-08-01T05:35:26;146202.50;;;18.02;83.56
14689;BME280;7432;48.728;9.154;2023-08-01T05:37:54;146219.53;;;18.09;82.14
14689;BME280;7432;48.728;9.154;2023-08-01T05:40:20;146214.69;;;18.07;82.14
14689;BME280;7432;48.728;9.154;2023-08-01T05:42:47;146208.59;;;18.04;82.88
14689;BME280;7432;48.728;9.154;2023-08-01T05:45:13;146220.75;;;18.09;81.79
14689;BME280;7432;48.728;9.154;2023-08-01T05:47:39;146229.28;;;18.13;81.36
14689;BME280;7432;48.728;9.154;2023-08-01T05:50:06;146243.91;;;18.19;81.44
14689;BME280;7432;48.728;9.154;2023-08-01T05:52:33;146253.63;;;18.23;81.07
14689;BME280;7432;48.728;9.154;2023-08-01T05:55:01;146258.53;;;18.25;81.54
14689;BME280;7432;48.728;9.154;2023-08-01T05:57:28;146275.56;;;18.32;81.11
14689;BME280;7432;48.728;9.154;2023-08-01T05:59:55;146293.81;;;18.40;80.02
14689;BME280;7432;48.728;9.154;2023-08-01T06:02:21;146296.25;;;18.41;80.27
14689;BME280;7432;48.728;9.154;2023-08-01T06:04:47;146298.66;;;18.42;79.67
14689;BME280;7432;48.728;9.154;2023-08-01T06:07:14;146313.31;;;18.48;79.38
14689;BME280;7432;48.728;9.154;2023-08-01T06:09:40;146329.19;;;18.54;79.43
14689;BME280;7432;48.728;9.154;2023-08-01T06:12:08;146324.31;;;18.52;79.98
14689;BME280;7432;48.728;9.154;2023-08-01T06:14:34;146321.88;;;18.51;77.74
14689;BME280;7432;48.728;9.154;2023-08-01T06:17:01;146337.72;;;18.58;77.91
14689;BME280;7432;48.728;9.154;2023-08-01T06:19:27;146348.66;;;18.62;76.87
14689;BME280;7432;48.728;9.154;2023-08-01T06:21:55;146330.41;;;18.55;77.96
14689;BME280;7432;48.728;9.154;2023-08-01T06:24:21;146323.09;;;18.52;78.77
14689;BME280;7432;48.728;9.154;2023-08-01T06:26:47;146282.88;;;18.35;80.16
14689;BME280;7432;48.728;9.154;2023-08-01T06:29:15;146267.03;;;18.28;79.99
14689;BME280;7432;48.728;9.154;2023-08-01T06:31:41;146250.00;;;18.21;80.58
14689;BME280;7432;48.728;9.154;2023-08-01T06:34:08;146234.16;;;18.15;80.32
14689;BME280;7432;48.728;9.154;2023-08-01T06:36:34;146234.16;;;18.15;80.61
14689;BME280;7432;48.728;9.154;2023-08-01T06:39:00;146232.94;;;18.14;79.94
14689;BME280;7432;48.728;9.154;2023-08-01T06:41:27;146226.84;;;18.12;81.17
14689;BME280;7432;48.728;9.154;2023-08-01T06:43:53;146224.44;;;18.11;79.91
14689;BME280;7432;48.728;9.154;2023-08-01T06:46:21;146213.44;;;18.06;80.30
14689;BME280;7432;48.728;9.154;2023-08-01T06:48:47;146217.13;;;18.08;79.60
14689;BME280;7432;48.728;9.154;2023-08-01T06:51:14;146202.50;;;18.02;81.30
14689;BME280;7432;48.728;9.154;2023-08-01T06:53:40;146202.50;;;18.02;82.76
14689;BME280;7432;48.728;9.154;2023-08-01T06:56:07;146136.81;;;17.74;86.60
14689;BME280;7432;48.728;9.154;2023-08-01T06:58:33;146102.72;;;17.60;87.92
14689;BME280;7432;48.728;9.154;2023-08-01T07:00:59;146082.00;;;17.52;90.08
14689;BME280;7432;48.728;9.154;2023-08-01T07:03:27;146075.91;;;17.49;90.39
14689;BME280;7432;48.728;9.154;2023-08-01T07:05:53;146088.13;;;17.54;90.51
14689;BME280;7432;48.728;9.154;2023-08-01T07:08:20;146099.09;;;17.59;89.87
14689;BME280;7432;48.728;9.154;2023-08-01T07:10:47;146111.25;;;17.64;88.50
14689;BME280;7432;48.728;9.154;2023-08-01T07:13:13;146127.06;;;17.70;89.09
14689;BME280;7432;48.728;9.154;2023-08-01T07:15:41;146140.44;;;17.76;87.32
14689;BME280;7432;48.728;9.154;2023-08-01T07:18:07;146197.66;;;18.00;84.34
14689;BME280;7432;48.728;9.154;2023-08-01T07:20:35;146198.88;;;18.00;84.08
14689;BME280;7432;48.728;9.154;2023-08-01T07:23:01;146206.16;;;18.03;83.40
14689;BME280;7432;48.728;9.154;2023-08-01T07:25:28;146169.66;;;17.88;86.30
14689;BME280;7432;48.728;9.154;2023-08-01T07:27:54;146140.44;;;17.76;86.74
14689;BME280;7432;48.728;9.154;2023-08-01T07:30:20;146152.66;;;17.81;86.17
14689;BME280;7432;48.728;9.154;2023-08-01T07:32:47;146134.34;;;17.73;86.09
14689;BME280;7432;48.728;9.154;2023-08-01T07:35:13;146142.88;;;17.77;86.52
14689;BME280;7432;48.728;9.154;2023-08-01T07:37:41;146145.34;;;17.78;85.61
14689;BME280;7432;48.728;9.154;2023-08-01T07:40:09;146122.19;;;17.68;88.47
14689;BME280;7432;48.728;9.154;2023-08-01T07:42:35;146103.94;;;17.61;88.93
14689;BME280;7432;48.728;9.154;2023-08-01T07:45:02;146085.72;;;17.53;89.39
14689;BME280;7432;48.728;9.154;2023-08-01T07:47:28;146063.75;;;17.44;91.00
14689;BME280;7432;48.728;9.154;2023-08-01T07:49:55;146061.31;;;17.43;90.82
14689;BME280;7432;48.728;9.154;2023-08-01T07:52:21;146040.66;;;17.35;93.66
14689;BME280;7432;48.728;9.154;2023-08-01T07:54:49;145996.84;;;17.16;95.12
14689;BME280;7432;48.728;9.154;2023-08-01T07:57:17;145959.16;;;17.01;96.85
14689;BME280;7432;48.728;9.154;2023-08-01T07:59:43;145922.66;;;16.86;99.60
14689;BME280;7432;48.728;9.154;2023-08-01T08:02:10;145926.31;;;16.87;99.72
14689;BME280;7432;48.728;9.154;2023-08-01T08:04:36;145915.38;;;16.83;100.00
14689;BME280;7432;48.728;9.154;2023-08-01T08:07:03;145893.50;;;16.74;100.00
14689;BME280;7432;48.728;9.154;2023-08-01T08:09:29;145883.75;;;16.70;100.00
14689;BME280;7432;48.728;9.154;2023-08-01T08:11:57;145878.88;;;16.68;100.00
14689;BME280;7432;48.728;9.154;2023-08-01T08:14:24;145875.25;;;16.66;100.00
14689;BME280;7432;48.728;9.154;2023-08-01T08:16:50;145872.81;;;16.65;100.00
14689;BME280;7432;48.728;9.154;2023-08-01T08:19:17;145866.75;;;16.63;100.00
14689;BME280;7432;48.728;9.154;2023-08-01T08:21:43;145858.22;;;16.59;100.00
14689;BME280;7432;48.728;9.154;2023-08-01T08:24:10;145876.44;;;16.67;100.00
14689;BME280;7432;48.728;9.154;2023-08-01T08:26:36;145895.94;;;16.75;100.00
14689;BME280;7432;48.728;9.154;2023-08-01T08:29:06;145881.34;;;16.69;100.00
14689;BME280;7432;48.728;9.154;2023-08-01T08:31:32;145859.44;;;16.59;100.00
14689;BME280;7432;48.728;9.154;2023-08-01T08:33:58;145867.97;;;16.63;100.00
14689;BME280;7432;48.728;9.154;2023-08-01T08:36:25;145882.56;;;16.69;100.00
14689;BME280;7432;48.728;9.154;2023-08-01T08:38:51;145908.09;;;16.80;100.00
14689;BME280;7432;48.728;9.154;2023-08-01T08:41:20;145943.31;;;16.94;100.00
14689;BME280;7432;48.728;9.154;2023-08-01T08:43:48;146030.91;;;17.31;100.00
14689;BME280;7432;48.728;9.154;2023-08-01T08:46:16;146125.88;;;17.70;100.00
14689;BME280;7432;48.728;9.154;2023-08-01T08:48:43;146173.28;;;17.90;100.00
14689;BME280;7432;48.728;9.154;2023-08-01T08:51:11;146175.75;;;17.91;100.00
14689;BME280;7432;48.728;9.154;2023-08-01T08:53:40;146167.22;;;17.87;100.00
14689;BME280;7432;48.728;9.154;2023-08-01T08:56:08;146139.25;;;17.75;100.00
14689;BME280;7432;48.728;9.154;2023-08-01T08:58:35;146113.72;;;17.65;100.00
14689;BME280;7432;48.728;9.154;2023-08-01T09:01:05;146159.91;;;17.84;100.00
14689;BME280;7432;48.728;9.154;2023-08-01T09:03:33;146218.34;;;18.08;100.00
14689;BME280;7432;48.728;9.154;2023-08-01T09:06:03;146259.72;;;18.25;100.00
14689;BME280;7432;48.728;9.154;2023-08-01T09:08:32;146262.16;;;18.26;100.00
14689;BME280;7432;48.728;9.154;2023-08-01T09:11:01;146284.09;;;18.35;100.00
14689;BME280;7432;48.728;9.154;2023-08-01T09:13:27;146307.19;;;18.45;99.39
14689;BME280;7432;48.728;9.154;2023-08-01T09:15:54;146251.22;;;18.22;99.74
14689;BME280;7432;48.728;9.154;2023-08-01T09:18:22;146252.41;;;18.22;99.82
14689;BME280;7432;48.728;9.154;2023-08-01T09:20:50;146215.91;;;18.07;100.00
14689;BME280;7432;48.728;9.154;2023-08-01T09:23:17;146192.81;;;17.98;100.00
14689;BME280;7432;48.728;9.154;2023-08-01T09:25:44;146200.06;;;18.01;100.00
14689;BME280;7432;48.728;9.154;2023-08-01T09:28:18;146204.97;;;18.03;100.00
14689;BME280;7432;48.728;9.154;2023-08-01T09:30:48;146204.97;;;18.03;100.00
14689;BME280;7432;48.728;9.154;2023-08-01T09:33:15;146212.28;;;18.06;100.00
14689;BME280;7432;48.728;9.154;2023-08-01T09:35:42;146204.97;;;18.03;100.00
14689;BME280;7432;48.728;9.154;2023-08-01T09:38:12;146242.69;;;18.18;100.00
14689;BME280;7432;48.728;9.154;2023-08-01T09:40:39;146324.31;;;18.52;100.00
14689;BME280;7432;48.728;9.154;2023-08-01T09:43:06;146380.31;;;18.75;100.00
14689;BME280;7432;48.728;9.154;2023-08-01T09:45:32;146427.81;;;18.95;98.82
14689;BME280;7432;48.728;9.154;2023-08-01T09:47:59;146438.75;;;19.00;97.71
14689;BME280;7432;48.728;9.154;2023-08-01T09:50:26;146427.81;;;18.95;97.56
14689;BME280;7432;48.728;9.154;2023-08-01T09:52:52;146402.25;;;18.84;98.81
14689;BME280;7432;48.728;9.154;2023-08-01T09:55:25;146416.88;;;18.90;97.73
14689;BME280;7432;48.728;9.154;2023-08-01T09:57:53;146450.94;;;19.05;96.74
14689;BME280;7432;48.728;9.154;2023-08-01T10:00:22;146460.69;;;19.09;94.26
14689;BME280;7432;48.728;9.154;2023-08-01T10:02:50;146517.94;;;19.32;94.87
14689;BME280;7432;48.728;9.154;2023-08-01T10:05:18;146541.13;;;19.42;94.79
14689;BME280;7432;48.728;9.154;2023-08-01T10:07:45;146538.69;;;19.41;93.31
14689;BME280;7432;48.728;9.154;2023-08-01T10:10:13;146526.47;;;19.36;93.73
14689;BME280;7432;48.728;9.154;2023-08-01T10:12:45;146546.00;;;19.44;92.74
14689;BME280;7432;48.728;9.154;2023-08-01T10:15:13;146521.59;;;19.34;93.75
14689;BME280;7432;48.728;9.154;2023-08-01T10:17:40;146506.97;;;19.28;94.05
14689;BME280;7432;48.728;9.154;2023-08-01T10:20:08;146515.53;;;19.31;93.95
14689;BME280;7432;48.728;9.154;2023-08-01T10:22:35;146509.44;;;19.29;94.65
14689;BME280;7432;48.728;9.154;2023-08-01T10:25:03;146567.94;;;19.53;94.86
14689;BME280;7432;48.728;9.154;2023-08-01T10:27:29;146555.78;;;19.48;93.51
14689;BME280;7432;48.728;9.154;2023-08-01T10:29:58;146588.66;;;19.62;92.10
14689;BME280;7432;48.728;9.154;2023-08-01T10:32:30;146600.84;;;19.67;93.44
14689;BME280;7432;48.728;9.154;2023-08-01T10:34:57;146719.06;;;20.16;92.44
14689;BME280;7432;48.728;9.154;2023-08-01T10:37:24;146889.78;;;20.86;87.78
14689;BME280;7432;48.728;9.154;2023-08-01T10:39:56;146906.84;;;20.93;89.11
14689;BME280;7432;48.728;9.154;2023-08-01T10:42:23;146941.06;;;21.07;87.81
14689;BME280;7432;48.728;9.154;2023-08-01T10:44:49;147194.91;;;22.12;84.03
14689;BME280;7432;48.728;9.154;2023-08-01T10:47:26;147684.88;;;24.14;76.76
14689;BME280;7432;48.728;9.154;2023-08-01T10:49:52;148057.91;;;25.68;68.65
14689;BME280;7432;48.728;9.154;2023-08-01T10:52:20;148102.00;;;25.86;65.61
14689;BME280;7432;48.728;9.154;2023-08-01T10:54:55;147971.03;;;25.32;65.94
14689;BME280;7432;48.728;9.154;2023-08-01T10:57:23;147679.97;;;24.12;68.66
14689;BME280;7432;48.728;9.154;2023-08-01T10:59:49;147472.16;;;23.27;71.79
14689;BME280;7432;48.728;9.154;2023-08-01T11:02:20;147258.38;;;22.38;72.91
14689;BME280;7432;48.728;9.154;2023-08-01T11:04:56;147600.50;;;23.80;68.56
14689;BME280;7432;48.728;9.154;2023-08-01T11:07:23;148046.91;;;25.64;64.21
14689;BME280;7432;48.728;9.154;2023-08-01T11:09:49;148329.78;;;26.80;55.07
14689;BME280;7432;48.728;9.154;2023-08-01T11:12:15;148572.31;;;27.80;53.92
14689;BME280;7432;48.728;9.154;2023-08-01T11:14:42;148645.88;;;28.10;49.48
14689;BME280;7432;48.728;9.154;2023-08-01T11:17:11;148813.88;;;28.79;47.99
14689;BME280;7432;48.728;9.154;2023-08-01T11:19:38;148748.81;;;28.53;46.97
14689;BME280;7432;48.728;9.154;2023-08-01T11:22:09;148752.53;;;28.54;47.20
14689;BME280;7432;48.728;9.154;2023-08-01T11:24:36;148644.66;;;28.10;47.60
14689;BME280;7432;48.728;9.154;2023-08-01T11:27:02;148627.53;;;28.03;45.77
14689;BME280;7432;48.728;9.154;2023-08-01T11:29:29;148799.16;;;28.73;43.80
14689;BME280;7432;48.728;9.154;2023-08-01T11:31:58;148643.41;;;28.09;48.37
14689;BME280;7432;48.728;9.154;2023-08-01T11:34:25;148735.34;;;28.47;46.44
14689;BME280;7432;48.728;9.154;2023-08-01T11:36:52;148612.75;;;27.97;44.46
14689;BME280;7432;48.728;9.154;2023-08-01T11:39:20;148649.53;;;28.12;43.47
14689;BME280;7432;48.728;9.154;2023-08-01T11:41:47;148858.00;;;28.98;43.79
14689;BME280;7432;48.728;9.154;2023-08-01T11:44:14;148956.13;;;29.38;44.48
14689;BME280;7432;48.728;9.154;2023-08-01T11:46:40;148877.59;;;29.06;40.95
14689;BME280;7432;48.728;9.154;2023-08-01T11:49:08;148757.41;;;28.56;43.09
14689;BME280;7432;48.728;9.154;2023-08-01T11:51:39;148849.41;;;28.94;40.67
14689;BME280;7432;48.728;9.154;2023-08-01T11:54:06;148758.66;;;28.57;41.59
14689;BME280;7432;48.728;9.154;2023-08-01T11:56:36;148680.22;;;28.25;41.83
14689;BME280;7432;48.728;9.154;2023-08-01T11:59:08;148585.78;;;27.86;42.43
14689;BME280;7432;48.728;9.154;2023-08-01T12:01:38;148599.28;;;27.91;43.32
14689;BME280;7432;48.728;9.154;2023-08-01T12:04:04;148583.34;;;27.85;43.79
14689;BME280;7432;48.728;9.154;2023-08-01T12:06:32;148506.16;;;27.53;45.21
14689;BME280;7432;48.728;9.154;2023-08-01T12:09:06;148503.69;;;27.52;43.00
14689;BME280;7432;48.728;9.154;2023-08-01T12:11:33;148414.25;;;27.15;45.78
14689;BME280;7432;48.728;9.154;2023-08-01T12:14:02;148430.16;;;27.22;46.71
14689;BME280;7432;48.728;9.154;2023-08-01T12:16:29;148161.97;;;26.11;47.78
14689;BME280;7432;48.728;9.154;2023-08-01T12:18:56;147986.91;;;25.39;48.06
14689;BME280;7432;48.728;9.154;2023-08-01T12:21:22;147800.97;;;24.62;49.84
14689;BME280;7432;48.728;9.154;2023-08-01T12:23:49;147815.66;;;24.68;49.54
14689;BME280;7432;48.728;9.154;2023-08-01T12:26:15;147766.75;;;24.48;49.89
14689;BME280;7432;48.728;9.154;2023-08-01T12:28:41;147661.56;;;24.05;49.47
14689;BME280;7432;48.728;9.154;2023-08-01T12:31:09;147600.50;;;23.80;51.13
14689;BME280;7432;48.728;9.154;2023-08-01T12:33:35;147552.84;;;23.60;52.24
14689;BME280;7432;48.728;9.154;2023-08-01T12:36:02;147500.31;;;23.38;51.95
14689;BME280;7432;48.728;9.154;2023-08-01T12:38:29;147459.94;;;23.22;53.41
14689;BME280;7432;48.728;9.154;2023-08-01T12:40:55;147412.28;;;23.02;52.67
14689;BME280;7432;48.728;9.154;2023-08-01T12:43:21;147419.63;;;23.05;53.88
14689;BME280;7432;48.728;9.154;2023-08-01T12:45:48;147431.84;;;23.10;55.37
14689;BME280;7432;48.728;9.154;2023-08-01T12:48:15;147445.28;;;23.16;52.80
14689;BME280;7432;48.728;9.154;2023-08-01T12:50:43;147459.94;;;23.22;53.64
14689;BME280;7432;48.728;9.154;2023-08-01T12:53:10;147506.41;;;23.41;53.83
14689;BME280;7432;48.728;9.154;2023-08-01T12:55:37;147500.31;;;23.38;51.37